.
WxDataArchive / Data Records for 2010-01-09
2010-01-08 January 2010 2010-01-10

Data Records for Saturday, 09 January 2010

Time	Temp	Chill	HIndex	Humid	Dewpt	 Wind 	HiWind	WindDir	Rain 	Barom 
-----	----	-----	------	-----	-----	------	------	-------	-----	----- 
00:00	18.3	18.3	18.3	83	14.0	0	1	292	0.00	30.357 
00:05	18.1	18.1	18.1	83	13.8	0	1	292	0.00	30.357 
00:10	18.0	18.0	18.0	83	13.7	0	0	---	0.00	30.357 
00:15	18.0	18.0	18.0	83	13.7	0	1	292	0.00	30.355 
00:20	17.8	17.8	17.8	84	13.8	0	1	292	0.00	30.355 
00:25	17.8	17.8	17.8	84	13.8	0	0	---	0.00	30.355 
00:30	17.8	17.8	17.8	84	13.8	0	0	---	0.00	30.344 
00:35	18.0	18.0	18.0	84	14.0	0	1	292	0.00	30.344 
00:40	18.0	18.0	18.0	84	14.0	0	1	292	0.00	30.344 
00:45	18.0	18.0	18.0	85	14.3	0	1	292	0.00	30.344 
00:50	18.1	18.1	18.1	85	14.4	0	1	292	0.00	30.344 
00:55	18.1	18.1	18.1	85	14.4	0	1	292	0.00	30.344 
01:00	18.1	18.1	18.1	85	14.4	0	1	292	0.00	30.344 
01:05	18.1	18.1	18.1	85	14.4	0	2	292	0.00	30.344 
01:10	18.1	18.1	18.1	85	14.4	0	2	292	0.00	30.344 
01:15	18.1	18.1	18.1	85	14.4	0	2	225	0.00	30.346 
01:20	18.1	18.1	18.1	85	14.4	0	2	225	0.00	30.346 
01:25	18.1	18.1	18.1	85	14.4	0	1	225	0.00	30.346 
01:30	18.1	18.1	18.1	85	14.4	0	2	225	0.00	30.348 
01:35	18.1	18.1	18.1	85	14.4	0	1	225	0.00	30.348 
01:40	18.0	18.0	18.0	85	14.3	0	1	225	0.00	30.348 
01:45	18.1	18.1	18.1	85	14.4	0	1	225	0.00	30.348 
01:50	18.1	18.1	18.1	84	14.1	0	1	225	0.00	30.348 
01:55	18.1	18.1	18.1	84	14.1	0	1	225	0.00	30.348 
02:00	18.1	18.1	18.1	84	14.1	0	0	---	0.00	30.346 
02:05	18.1	18.1	18.1	84	14.1	0	1	225	0.00	30.346 
02:10	18.3	18.3	18.3	84	14.3	0	2	225	0.00	30.346 
02:15	18.3	18.3	18.3	84	14.3	0	2	225	0.00	30.349 
02:20	18.3	18.3	18.3	84	14.3	0	1	225	0.00	30.349 
02:25	18.3	18.3	18.3	84	14.3	0	1	225	0.00	30.349 
02:30	18.3	18.3	18.3	83	14.0	0	2	225	0.00	30.358 
02:35	18.1	18.1	18.1	83	13.8	0	2	338	0.00	30.358 
02:40	18.1	18.1	18.1	83	13.8	1	3	248	0.00	30.358 
02:45	18.1	18.1	18.1	82	13.5	0	2	248	0.00	30.364 
02:50	17.8	17.8	17.8	82	13.3	1	2	248	0.00	30.364 
02:55	17.7	17.7	17.7	82	13.2	1	2	248	0.00	30.364 
03:00	17.3	17.3	17.3	81	12.5	0	2	248	0.00	30.374 
03:05	17.2	17.2	17.2	81	12.4	0	2	248	0.00	30.374 
03:10	17.0	17.0	17.0	81	12.2	0	1	248	0.00	30.374 
03:15	16.9	16.9	16.9	81	12.1	0	2	248	0.00	30.377 
03:20	16.7	16.7	16.7	81	11.9	0	2	248	0.00	30.377 
03:25	16.4	16.4	16.4	81	11.6	0	1	248	0.00	30.377 
03:30	16.1	16.1	16.1	81	11.3	0	1	248	0.00	30.377 
03:35	15.7	15.7	15.7	80	10.6	0	1	248	0.00	30.377 
03:40	15.2	15.2	15.2	80	10.2	0	1	248	0.00	30.377 
03:45	14.8	14.8	14.8	80	9.8	0	1	248	0.00	30.380 
03:50	14.3	14.3	14.3	80	9.3	0	1	248	0.00	30.380 
03:55	13.8	13.8	13.8	81	9.1	0	1	248	0.00	30.380 
04:00	13.5	13.5	13.5	81	8.8	0	1	248	0.00	30.380 
04:05	13.1	13.1	13.1	81	8.4	0	0	---	0.00	30.380 
04:10	12.8	12.8	12.8	81	8.1	0	0	---	0.00	30.380 
04:15	12.4	12.4	12.4	81	7.7	0	0	---	0.00	30.382 
04:20	12.1	12.1	12.1	82	7.7	0	0	---	0.00	30.382 
04:25	11.9	11.9	11.9	82	7.5	0	1	248	0.00	30.382 
04:30	11.6	11.6	11.6	82	7.2	0	0	---	0.00	30.384 
04:35	11.2	11.2	11.2	83	7.1	0	0	---	0.00	30.384 
04:40	11.1	11.1	11.1	83	7.0	0	0	---	0.00	30.384 
04:45	10.7	10.7	10.7	83	6.6	0	0	---	0.00	30.386 
04:50	10.5	10.5	10.5	83	6.4	0	0	---	0.00	30.386 
04:55	10.4	10.4	10.4	84	6.5	0	0	---	0.00	30.386 
05:00	10.2	10.2	10.2	84	6.3	0	0	---	0.00	30.396 
05:05	10.0	10.0	10.0	84	6.2	0	0	---	0.00	30.396 
05:10	10.0	10.0	10.0	84	6.2	0	0	---	0.00	30.396 
05:15	10.2	10.2	10.2	85	6.6	0	1	248	0.00	30.404 
05:20	10.4	10.4	10.4	85	6.8	0	1	248	0.00	30.404 
05:25	10.7	10.7	10.7	85	7.1	0	1	248	0.00	30.404 
05:30	11.1	11.1	11.1	86	7.7	0	2	248	0.00	30.405 
05:35	11.2	11.2	11.2	86	7.8	0	1	248	0.00	30.405 
05:40	11.2	11.2	11.2	85	7.6	0	1	248	0.00	30.405 
05:45	11.1	11.1	11.1	85	7.5	0	2	248	0.00	30.408 
05:50	11.1	11.1	11.1	85	7.5	0	2	248	0.00	30.408 
05:55	11.2	11.2	11.2	85	7.6	0	2	248	0.00	30.408 
06:00	11.4	11.4	11.4	85	7.8	0	1	248	0.00	30.409 
06:05	11.4	11.4	11.4	85	7.8	0	1	248	0.00	30.409 
06:10	11.6	11.6	11.6	85	8.0	0	0	---	0.00	30.409 
06:15	11.6	11.6	11.6	84	7.7	0	1	248	0.00	30.412 
06:20	11.6	11.6	11.6	84	7.7	0	1	248	0.00	30.412 
06:25	11.6	11.6	11.6	84	7.7	0	0	---	0.00	30.412 
06:30	11.6	11.6	11.6	84	7.7	0	0	---	0.00	30.417 
06:35	11.6	11.6	11.6	84	7.7	0	0	---	0.00	30.417 
06:40	11.6	11.6	11.6	84	7.7	0	1	248	0.00	30.417 
06:45	11.6	11.6	11.6	84	7.7	0	1	248	0.00	30.422 
06:50	11.4	11.4	11.4	83	7.3	0	1	248	0.00	30.422 
06:55	11.2	11.2	11.2	83	7.1	0	0	---	0.00	30.422 
07:00	11.1	11.1	11.1	83	7.0	0	1	248	0.00	30.424 
07:05	10.9	10.9	10.9	83	6.8	0	1	248	0.00	30.424 
07:10	10.7	10.7	10.7	82	6.3	0	1	248	0.00	30.424 
07:15	10.7	10.7	10.7	82	6.3	0	1	248	0.00	30.434 
07:20	10.5	10.5	10.5	83	6.4	0	1	248	0.00	30.434 
07:25	10.5	10.5	10.5	83	6.4	0	1	248	0.00	30.434 
07:30	10.5	10.5	10.5	83	6.4	0	1	248	0.00	30.436 
07:35	10.4	10.4	10.4	83	6.3	0	1	248	0.00	30.436 
07:40	10.2	10.2	10.2	83	6.1	0	1	248	0.00	30.436 
07:45	10.2	10.2	10.2	83	6.1	0	1	248	0.00	30.445 
07:50	10.2	10.2	10.2	83	6.1	0	1	248	0.00	30.445 
07:55	10.0	10.0	10.0	83	5.9	0	0	---	0.00	30.445 
08:00	10.0	10.0	10.0	83	5.9	0	1	248	0.00	30.449 
08:05	10.0	10.0	10.0	82	5.6	0	0	---	0.00	30.449 
08:10	9.9	9.9	9.9	82	5.5	0	0	---	0.00	30.449 
08:15	9.7	9.7	9.7	82	5.3	0	0	---	0.00	30.452 
08:20	9.5	9.5	9.5	82	5.1	0	0	---	0.00	30.452 
08:25	9.3	9.3	9.3	82	4.9	0	0	---	0.00	30.452 
08:30	9.0	9.0	9.0	82	4.6	0	0	---	0.00	30.457 
08:35	8.8	8.8	8.8	82	4.5	0	0	---	0.00	30.457 
08:40	8.6	8.6	8.6	82	4.3	0	0	---	0.00	30.457 
08:45	8.6	8.6	8.6	82	4.3	0	0	---	0.00	30.465 
08:50	8.8	8.8	8.8	83	4.7	0	1	225	0.00	30.465 
08:55	9.0	9.0	9.0	83	4.9	0	0	---	0.00	30.465 
09:00	9.3	9.3	9.3	83	5.2	0	0	---	0.00	30.467 
09:05	9.7	9.7	9.7	83	5.6	0	1	225	0.00	30.467 
09:10	9.9	9.9	9.9	83	5.8	0	0	---	0.00	30.467 
09:15	10.2	10.2	10.2	83	6.1	0	2	225	0.00	30.469 
09:20	10.5	10.5	10.5	83	6.4	0	1	225	0.00	30.469 
09:25	10.9	10.9	10.9	83	6.8	0	1	225	0.00	30.469 
09:30	11.1	11.1	11.1	82	6.7	0	1	225	0.00	30.468 
09:35	11.4	11.4	11.4	82	7.0	0	1	225	0.00	30.468 
09:40	11.9	11.9	11.9	81	7.2	0	1	225	0.00	30.468 
09:45	12.4	12.4	12.4	81	7.7	0	2	225	0.00	30.476 
09:50	12.8	12.8	12.8	80	7.8	0	1	225	0.00	30.476 
09:55	13.3	13.3	13.3	80	8.3	0	1	225	0.00	30.476 
10:00	13.6	13.6	13.6	79	8.3	0	1	225	0.00	30.478 
10:05	14.0	14.0	14.0	78	8.4	0	2	338	0.00	30.478 
10:10	14.3	14.3	14.3	77	8.4	0	2	338	0.00	30.478 
10:15	14.8	14.8	14.8	77	8.9	0	1	338	0.00	30.487 
10:20	15.2	15.2	15.2	76	9.0	0	3	270	0.00	30.487 
10:25	15.7	15.7	15.7	75	9.2	0	2	270	0.00	30.487 
10:30	16.2	16.2	16.2	74	9.4	0	2	270	0.00	30.494 
10:35	16.5	16.5	16.5	73	9.4	1	3	270	0.00	30.494 
10:40	16.7	16.7	16.7	71	9.0	0	2	270	0.00	30.494 
10:45	16.9	16.9	16.9	71	9.2	0	2	270	0.00	30.495 
10:50	17.2	17.2	17.2	70	9.1	0	2	22	0.00	30.495 
10:55	17.3	17.3	17.3	70	9.2	0	2	22	0.00	30.495 
11:00	17.5	17.5	17.5	69	9.1	1	2	180	0.00	30.499 
11:05	17.8	17.8	17.8	69	9.4	0	2	0	0.00	30.499 
11:10	18.0	18.0	18.0	69	9.6	0	3	0	0.00	30.499 
11:15	18.1	18.1	18.1	68	9.3	0	2	22	0.00	30.502 
11:20	18.3	18.3	18.3	68	9.5	1	3	22	0.00	30.502 
11:25	18.4	18.4	18.4	68	9.6	0	2	292	0.00	30.502 
11:30	18.8	18.8	18.8	67	9.7	0	1	292	0.00	30.499 
11:35	18.9	18.9	18.9	66	9.4	0	2	22	0.00	30.499 
11:40	19.1	19.1	19.1	66	9.6	0	2	22	0.00	30.499 
11:45	19.2	19.2	19.2	66	9.7	0	2	68	0.00	30.494 
11:50	19.5	19.5	19.5	66	10.0	1	4	68	0.00	30.494 
11:55	19.4	19.4	19.4	65	9.6	1	3	292	0.00	30.494 
12:00	19.5	19.5	19.5	65	9.7	0	2	292	0.00	30.488 
12:05	19.9	19.9	19.9	65	10.1	1	2	22	0.00	30.488 
12:10	20.0	20.0	20.0	64	9.8	0	2	22	0.00	30.488 
12:15	20.0	20.0	20.0	64	9.8	0	2	22	0.00	30.480 
12:20	20.0	20.0	20.0	64	9.8	1	2	292	0.00	30.480 
12:25	20.0	20.0	20.0	64	9.8	1	3	292	0.00	30.480 
12:30	20.0	20.0	20.0	64	9.8	1	2	248	0.00	30.476 
12:35	20.2	20.2	20.2	64	10.0	1	3	248	0.00	30.476 
12:40	20.2	20.2	20.2	64	10.0	1	3	315	0.00	30.476 
12:45	20.3	20.3	20.3	64	10.1	1	3	22	0.00	30.469 
12:50	20.5	20.5	20.5	64	10.3	1	4	270	0.00	30.469 
12:55	20.5	20.5	20.5	63	9.9	1	2	270	0.00	30.469 
13:00	20.6	20.6	20.6	63	10.0	1	2	338	0.00	30.461 
13:05	21.0	21.0	21.0	63	10.4	0	2	338	0.00	30.461 
13:10	21.1	21.1	21.1	62	10.1	1	5	0	0.00	30.461 
13:15	21.3	21.3	21.3	62	10.3	0	5	0	0.00	30.459 
13:20	21.4	21.4	21.4	62	10.4	1	3	0	0.00	30.459 
13:25	21.4	21.4	21.4	62	10.4	0	2	22	0.00	30.459 
13:30	21.6	21.6	21.6	62	10.6	0	2	248	0.00	30.452 
13:35	21.8	21.8	21.8	62	10.8	1	3	0	0.00	30.452 
13:40	21.9	21.9	21.9	62	10.9	0	2	0	0.00	30.452 
13:45	22.1	22.1	22.1	62	11.1	0	3	315	0.00	30.445 
13:50	22.1	22.1	22.1	61	10.7	1	3	315	0.00	30.445 
13:55	22.1	22.1	22.1	61	10.7	1	3	315	0.00	30.445 
14:00	22.1	22.1	22.1	61	10.7	1	3	90	0.00	30.443 
14:05	22.1	22.1	22.1	61	10.7	1	3	45	0.00	30.443 
14:10	22.1	22.1	22.1	61	10.7	0	2	45	0.00	30.443 
14:15	22.2	22.2	22.2	61	10.8	0	2	338	0.00	30.445 
14:20	22.2	22.2	22.2	61	10.8	0	3	270	0.00	30.445 
14:25	22.4	22.4	22.4	61	11.0	0	2	270	0.00	30.445 
14:30	22.4	22.4	22.4	61	11.0	1	3	22	0.00	30.443 
14:35	22.5	22.5	22.5	61	11.1	0	2	292	0.00	30.443 
14:40	22.5	22.5	22.5	60	10.7	0	2	292	0.00	30.443 
14:45	22.5	22.5	22.5	60	10.7	0	2	315	0.00	30.440 
14:50	22.5	22.5	22.5	60	10.7	0	2	315	0.00	30.440 
14:55	22.7	22.7	22.7	60	10.9	0	2	68	0.00	30.440 
15:00	22.7	22.7	22.7	60	10.9	0	1	68	0.00	30.442 
15:05	22.9	22.9	22.9	60	11.1	0	1	68	0.00	30.442 
15:10	22.9	22.9	22.9	60	11.1	0	1	68	0.00	30.442 
15:15	22.9	22.9	22.9	59	10.7	0	1	68	0.00	30.445 
15:20	22.9	22.9	22.9	59	10.7	0	2	270	0.00	30.445 
15:25	22.9	22.9	22.9	60	11.1	0	1	270	0.00	30.445 
15:30	22.9	22.9	22.9	60	11.1	0	1	270	0.00	30.448 
15:35	22.9	22.9	22.9	60	11.1	0	1	270	0.00	30.448 
15:40	22.9	22.9	22.9	60	11.1	0	2	270	0.00	30.448 
15:45	23.0	23.0	23.0	60	11.2	0	3	112	0.00	30.458 
15:50	23.0	23.0	23.0	60	11.2	0	1	112	0.00	30.458 
15:55	22.9	22.9	22.9	60	11.1	0	2	68	0.00	30.458 
16:00	22.9	22.9	22.9	61	11.5	0	2	90	0.00	30.461 
16:05	22.7	22.7	22.7	61	11.3	0	2	90	0.00	30.461 
16:10	22.5	22.5	22.5	61	11.1	0	1	90	0.00	30.461 
16:15	22.4	22.4	22.4	61	11.0	0	1	90	0.00	30.465 
16:20	22.2	22.2	22.2	61	10.8	0	2	90	0.00	30.465 
16:25	22.2	22.2	22.2	61	10.8	0	1	90	0.00	30.465 
16:30	22.1	22.1	22.1	61	10.7	0	1	90	0.00	30.467 
16:35	22.1	22.1	22.1	61	10.7	0	1	90	0.00	30.467 
16:40	22.1	22.1	22.1	61	10.7	0	1	90	0.00	30.467 
16:45	22.1	22.1	22.1	62	11.1	0	1	90	0.00	30.469 
16:50	21.9	21.9	21.9	62	10.9	0	1	90	0.00	30.469 
16:55	21.9	21.9	21.9	62	10.9	0	1	90	0.00	30.469 
17:00	21.8	21.8	21.8	62	10.8	0	1	90	0.00	30.473 
17:05	21.6	21.6	21.6	62	10.6	0	0	---	0.00	30.473 
17:10	21.3	21.3	21.3	63	10.7	0	1	90	0.00	30.473 
17:15	21.1	21.1	21.1	64	10.9	0	1	90	0.00	30.477 
17:20	21.0	21.0	21.0	64	10.8	0	2	90	0.00	30.477 
17:25	20.6	20.6	20.6	64	10.4	0	1	90	0.00	30.477 
17:30	20.3	20.3	20.3	64	10.1	0	1	90	0.00	30.480 
17:35	20.2	20.2	20.2	65	10.3	0	0	---	0.00	30.480 
17:40	19.7	19.7	19.7	65	9.9	0	0	---	0.00	30.480 
17:45	19.4	19.4	19.4	66	9.9	0	0	---	0.00	30.482 
17:50	19.1	19.1	19.1	66	9.6	0	0	---	0.00	30.482 
17:55	18.6	18.6	18.6	67	9.5	0	0	---	0.00	30.482 
18:00	18.3	18.3	18.3	68	9.5	0	0	---	0.00	30.486 
18:05	17.8	17.8	17.8	68	9.1	0	0	---	0.00	30.486 
18:10	17.3	17.3	17.3	68	8.6	0	0	---	0.00	30.486 
18:15	17.0	17.0	17.0	69	8.6	0	0	---	0.00	30.487 
18:20	16.7	16.7	16.7	70	8.6	0	0	---	0.00	30.487 
18:25	16.4	16.4	16.4	71	8.7	0	0	---	0.00	30.487 
18:30	16.1	16.1	16.1	72	8.7	0	0	---	0.00	30.496 
18:35	15.9	15.9	15.9	72	8.5	0	0	---	0.00	30.496 
18:40	15.6	15.6	15.6	73	8.5	0	0	---	0.00	30.496 
18:45	15.4	15.4	15.4	74	8.6	0	0	---	0.00	30.501 
18:50	15.1	15.1	15.1	74	8.3	0	0	---	0.00	30.501 
18:55	14.9	14.9	14.9	75	8.4	0	0	---	0.00	30.501 
19:00	14.6	14.6	14.6	75	8.1	0	0	---	0.00	30.505 
19:05	14.3	14.3	14.3	75	7.9	0	0	---	0.00	30.505 
19:10	14.0	14.0	14.0	76	7.9	0	0	---	0.00	30.505 
19:15	13.6	13.6	13.6	76	7.5	0	0	---	0.00	30.511 
19:20	13.3	13.3	13.3	77	7.5	0	0	---	0.00	30.511 
19:25	12.8	12.8	12.8	77	7.0	0	0	---	0.00	30.511 
19:30	12.4	12.4	12.4	77	6.6	0	0	---	0.00	30.512 
19:35	12.1	12.1	12.1	77	6.3	0	0	---	0.00	30.512 
19:40	11.6	11.6	11.6	78	6.1	0	0	---	0.00	30.512 
19:45	11.2	11.2	11.2	78	5.7	0	0	---	0.00	30.515 
19:50	11.1	11.1	11.1	79	5.9	0	0	---	0.00	30.515 
19:55	11.1	11.1	11.1	80	6.2	0	0	---	0.00	30.515 
20:00	11.1	11.1	11.1	80	6.2	0	0	---	0.00	30.521 
20:05	10.9	10.9	10.9	81	6.2	0	0	---	0.00	30.521 
20:10	10.9	10.9	10.9	81	6.2	0	0	---	0.00	30.521 
20:15	10.7	10.7	10.7	81	6.0	0	0	---	0.00	30.521 
20:20	10.4	10.4	10.4	81	5.7	0	0	---	0.00	30.521 
20:25	10.0	10.0	10.0	82	5.6	0	0	---	0.00	30.521 
20:30	9.9	9.9	9.9	82	5.5	0	0	---	0.00	30.525 
20:35	9.5	9.5	9.5	82	5.1	0	0	---	0.00	30.525 
20:40	9.2	9.2	9.2	82	4.8	0	0	---	0.00	30.525 
20:45	9.0	9.0	9.0	82	4.6	0	0	---	0.00	30.524 
20:50	8.8	8.8	8.8	82	4.5	0	0	---	0.00	30.524 
20:55	8.6	8.6	8.6	83	4.5	0	0	---	0.00	30.524 
21:00	8.6	8.6	8.6	83	4.5	0	0	---	0.00	30.527 
21:05	8.6	8.6	8.6	83	4.5	0	0	---	0.00	30.527 
21:10	8.6	8.6	8.6	83	4.5	0	0	---	0.00	30.527 
21:15	8.4	8.4	8.4	84	4.6	0	0	---	0.00	30.522 
21:20	8.3	8.3	8.3	83	4.2	0	0	---	0.00	30.522 
21:25	8.1	8.1	8.1	83	4.0	0	0	---	0.00	30.522 
21:30	7.9	7.9	7.9	83	3.8	0	0	---	0.00	30.523 
21:35	7.7	7.7	7.7	83	3.6	0	0	---	0.00	30.523 
21:40	7.6	7.6	7.6	84	3.8	0	0	---	0.00	30.523 
21:45	7.4	7.4	7.4	83	3.3	0	0	---	0.00	30.528 
21:50	7.2	7.2	7.2	84	3.4	0	0	---	0.00	30.528 
21:55	7.2	7.2	7.2	84	3.4	0	0	---	0.00	30.528 
22:00	7.2	7.2	7.2	84	3.4	0	0	---	0.00	30.529 
22:05	7.0	7.0	7.0	84	3.2	0	0	---	0.00	30.529 
22:10	7.0	7.0	7.0	84	3.2	0	0	---	0.00	30.529 
22:15	6.9	6.9	6.9	84	3.1	0	0	---	0.00	30.522 
22:20	6.7	6.7	6.7	84	2.9	0	0	---	0.00	30.522 
22:25	6.5	6.5	6.5	84	2.7	0	0	---	0.00	30.522 
22:30	6.5	6.5	6.5	84	2.7	0	0	---	0.00	30.523 
22:35	6.3	6.3	6.3	84	2.5	0	0	---	0.00	30.523 
22:40	6.1	6.1	6.1	84	2.3	0	0	---	0.00	30.523 
22:45	6.0	6.0	6.0	84	2.2	0	0	---	0.00	30.525 
22:50	6.0	6.0	6.0	84	2.2	0	0	---	0.00	30.525 
22:55	6.0	6.0	6.0	84	2.2	0	0	---	0.00	30.525 
23:00	5.8	5.8	5.8	84	2.0	0	0	---	0.00	30.526 
23:05	5.8	5.8	5.8	84	2.0	0	0	---	0.00	30.526 
23:10	5.6	5.6	5.6	84	1.8	0	0	---	0.00	30.526 
23:15	5.4	5.4	5.4	83	1.4	0	0	---	0.00	30.530 
23:20	5.2	5.2	5.2	83	1.2	0	0	---	0.00	30.530 
23:25	5.0	5.0	5.0	83	1.0	0	0	---	0.00	30.530 
23:30	5.2	5.2	5.2	84	1.4	0	0	---	0.00	30.532 
23:35	5.2	5.2	5.2	84	1.4	0	0	---	0.00	30.532 
23:40	5.2	5.2	5.2	84	1.4	0	0	---	0.00	30.532 
23:45	5.0	5.0	5.0	83	1.0	0	0	---	0.00	30.530 
23:50	4.7	4.7	4.7	83	0.7	0	0	---	0.00	30.530 
23:55	4.5	4.5	4.5	83	0.5	0	0	---	0.00	30.530 

CoCoRaHS
IN-AL-39
A2 Web Hosting
Creative Commons License
GoDaddy
search engine by freefind advanced

loaded 2018-11-12 20:21:00 • last modified 2010-11-18 10:43:29
Privacy PolicyDisclaimer
• wx.awcolley.com is powered by PmWiki v.2002016 •
• all content (unless otherwise noted) © 2018 A W Colley